Search for airport 
image banner adimage banner adimage banner ad
image banner ad

25PS - Primrose

Located in Minersville, United States

ICAO - 25PS, IATA -

Data provided by Airmate  

General information

Coordinates: N40°41'21" W76°16'47"
Elevation is 953 feet MSL.
Magnetic variation is -12° East
View others Airports in Pennsylvania

Operational data

Special qualification required
Current time UTC:
Current local time:
METAR: KMUI 071256Z 10008KT 10SM FEW080 BKN120 BKN250 15/01 A2992 RMK AO2A SLP135 T01460008
TAF: TAF KMUI 071100Z 0711/0817 VRB06KT 9999 SCT055 BKN200 QNH2980INS BECMG 0719/0720 05009KT 9000 -RA BKN030 OVC050 QNH2977INS BECMG 0723/0724 24009KT 6000 -RA BR OVC012 QNH2980INS BECMG 0808/0809 VRB06KT 8000 -SHRA SCT012 BKN030 BKN150 QNH2982INS BECMG 0814/0815 29010G15KT 8000 -SHRA BKN020 QNH2983INS TX16/0717Z TN06/0809Z
View NOTAMs / SUP AIP / TFR affecting this airport [VIEW]
Communications frequencies: [VIEW]

Runways:

Airport contact information

Address: Minersville United States

Satellite view of 25PS